HEOC weather

October Airport
Cairo Governorate, Egypt

Public forecast

Using degrees Celsius for public forecast. Weather courtesy of forecast.io.

Closest aviation weather report (METAR) to October Airport

Closest report is Cairo International Airport, 35.5 nm (65.8 km) ENE. Retrieved 2019/10/14 22:00 UTC (47 minutes ago):

HECA 142200Z 02004KT 6000 NSC 25/21 Q1015

Closest aviation forecast (TAF) to October Airport

Closest forecast is Cairo International Airport, 35.5 nm (65.8 km) ENE. Retrieved 2019/10/14 18:45 UTC (4 hours ago):

TAF HECA 141700Z 1418/1524 35008KT 6000 NSC TEMPO 1500/1506 VRB03KT 4000BR